sensor_id;sensor_type;location;lat;lon;timestamp;pressure;altitude;pressure_sealevel;temperature;humidity
61645;BME280;47553;52.428;13.382;2022-11-22T00:01:08;99722.28;;;-1.93;100.00
61645;BME280;47553;52.428;13.382;2022-11-22T00:03:10;99722.41;;;-1.98;100.00
61645;BME280;47553;52.428;13.382;2022-11-22T00:05:11;99723.03;;;-1.88;100.00
61645;BME280;47553;52.428;13.382;2022-11-22T00:07:13;99719.47;;;-1.84;100.00
61645;BME280;47553;52.428;13.382;2022-11-22T00:09:15;99696.41;;;-2.04;100.00
61645;BME280;47553;52.428;13.382;2022-11-22T00:11:18;99716.03;;;-1.86;100.00
61645;BME280;47553;52.428;13.382;2022-11-22T00:13:20;99707.34;;;-1.88;100.00
61645;BME280;47553;52.428;13.382;2022-11-22T00:15:21;99717.88;;;-1.91;100.00
61645;BME280;47553;52.428;13.382;2022-11-22T00:17:26;99698.78;;;-1.93;100.00
61645;BME280;47553;52.428;13.382;2022-11-22T00:19:28;99704.84;;;-1.92;100.00
61645;BME280;47553;52.428;13.382;2022-11-22T00:21:32;99697.69;;;-1.84;100.00
61645;BME280;47553;52.428;13.382;2022-11-22T00:23:34;99701.19;;;-1.85;100.00
61645;BME280;47553;52.428;13.382;2022-11-22T00:25:35;99691.25;;;-2.07;100.00
61645;BME280;47553;52.428;13.382;2022-11-22T00:27:38;99693.34;;;-2.21;100.00
61645;BME280;47553;52.428;13.382;2022-11-22T00:29:40;99690.47;;;-2.10;100.00
61645;BME280;47553;52.428;13.382;2022-11-22T00:31:42;99655.97;;;-2.24;100.00
61645;BME280;47553;52.428;13.382;2022-11-22T00:33:43;99681.81;;;-2.12;100.00
61645;BME280;47553;52.428;13.382;2022-11-22T00:35:45;99654.16;;;-2.21;100.00
61645;BME280;47553;52.428;13.382;2022-11-22T00:37:47;99681.59;;;-2.03;100.00
61645;BME280;47553;52.428;13.382;2022-11-22T00:39:50;99673.22;;;-2.17;100.00
61645;BME280;47553;52.428;13.382;2022-11-22T00:41:51;99680.16;;;-2.16;100.00
61645;BME280;47553;52.428;13.382;2022-11-22T00:43:54;99679.09;;;-2.08;100.00
61645;BME280;47553;52.428;13.382;2022-11-22T00:45:56;99694.66;;;-2.03;100.00
61645;BME280;47553;52.428;13.382;2022-11-22T00:47:58;99690.19;;;-1.98;100.00
61645;BME280;47553;52.428;13.382;2022-11-22T00:49:59;99676.44;;;-2.06;100.00
61645;BME280;47553;52.428;13.382;2022-11-22T00:52:01;99686.66;;;-1.97;100.00
61645;BME280;47553;52.428;13.382;2022-11-22T00:54:03;99677.78;;;-1.90;100.00
61645;BME280;47553;52.428;13.382;2022-11-22T00:56:07;99679.28;;;-1.80;100.00
61645;BME280;47553;52.428;13.382;2022-11-22T00:58:09;99662.94;;;-1.88;100.00
61645;BME280;47553;52.428;13.382;2022-11-22T01:00:12;99685.94;;;-1.67;100.00
61645;BME280;47553;52.428;13.382;2022-11-22T01:02:14;99677.50;;;-1.78;100.00
61645;BME280;47553;52.428;13.382;2022-11-22T01:04:16;99663.81;;;-1.89;100.00
61645;BME280;47553;52.428;13.382;2022-11-22T01:06:17;99668.31;;;-1.94;100.00
61645;BME280;47553;52.428;13.382;2022-11-22T01:08:19;99659.81;;;-2.04;100.00
61645;BME280;47553;52.428;13.382;2022-11-22T01:10:21;99661.91;;;-2.18;100.00
61645;BME280;47553;52.428;13.382;2022-11-22T01:12:22;99660.84;;;-2.09;100.00
61645;BME280;47553;52.428;13.382;2022-11-22T01:14:24;99656.34;;;-2.04;100.00
61645;BME280;47553;52.428;13.382;2022-11-22T01:16:27;99668.53;;;-2.03;100.00
61645;BME280;47553;52.428;13.382;2022-11-22T01:18:28;99658.03;;;-2.02;100.00
61645;BME280;47553;52.428;13.382;2022-11-22T01:20:30;99674.72;;;-2.07;100.00
61645;BME280;47553;52.428;13.382;2022-11-22T01:22:32;99660.63;;;-2.00;100.00
61645;BME280;47553;52.428;13.382;2022-11-22T01:24:34;99661.69;;;-2.09;100.00
61645;BME280;47553;52.428;13.382;2022-11-22T01:26:35;99660.91;;;-2.12;100.00
61645;BME280;47553;52.428;13.382;2022-11-22T01:28:37;99668.72;;;-2.11;100.00
61645;BME280;47553;52.428;13.382;2022-11-22T01:30:40;99680.72;;;-2.04;100.00
61645;BME280;47553;52.428;13.382;2022-11-22T01:32:43;99666.78;;;-2.03;100.00
61645;BME280;47553;52.428;13.382;2022-11-22T01:34:44;99655.66;;;-2.11;100.00
61645;BME280;47553;52.428;13.382;2022-11-22T01:36:46;99673.50;;;-1.92;100.00
61645;BME280;47553;52.428;13.382;2022-11-22T01:38:48;99670.91;;;-1.94;100.00
61645;BME280;47553;52.428;13.382;2022-11-22T01:40:49;99664.13;;;-2.01;100.00
61645;BME280;47553;52.428;13.382;2022-11-22T01:42:53;99672.91;;;-2.04;100.00
61645;BME280;47553;52.428;13.382;2022-11-22T01:45:22;99664.13;;;-2.01;100.00
61645;BME280;47553;52.428;13.382;2022-11-22T01:47:19;99683.53;;;-2.11;100.00
61645;BME280;47553;52.428;13.382;2022-11-22T01:49:28;99675.44;;;-2.01;100.00
61645;BME280;47553;52.428;13.382;2022-11-22T01:51:36;99677.72;;;-1.87;100.00
61645;BME280;47553;52.428;13.382;2022-11-22T01:53:39;99672.34;;;-1.81;100.00
61645;BME280;47553;52.428;13.382;2022-11-22T01:55:41;99677.50;;;-1.78;100.00
61645;BME280;47553;52.428;13.382;2022-11-22T01:57:43;99655.97;;;-1.89;100.00
61645;BME280;47553;52.428;13.382;2022-11-22T01:59:48;99668.69;;;-1.74;100.00
61645;BME280;47553;52.428;13.382;2022-11-22T02:01:52;99671.41;;;-1.78;100.00
61645;BME280;47553;52.428;13.382;2022-11-22T02:03:55;99658.44;;;-1.83;100.00
61645;BME280;47553;52.428;13.382;2022-11-22T02:06:01;99654.91;;;-1.80;100.00
61645;BME280;47553;52.428;13.382;2022-11-22T02:08:07;99667.56;;;-1.99;100.00
61645;BME280;47553;52.428;13.382;2022-11-22T02:10:09;99657.03;;;-1.96;100.00
61645;BME280;47553;52.428;13.382;2022-11-22T02:12:12;99653.75;;;-2.04;100.00
61645;BME280;47553;52.428;13.382;2022-11-22T02:14:18;99661.63;;;-2.06;100.00
61645;BME280;47553;52.428;13.382;2022-11-22T02:16:21;99657.09;;;-1.99;100.00
61645;BME280;47553;52.428;13.382;2022-11-22T02:18:23;99646.84;;;-2.07;100.00
61645;BME280;47553;52.428;13.382;2022-11-22T02:20:25;99648.75;;;-2.13;100.00
61645;BME280;47553;52.428;13.382;2022-11-22T02:22:30;99663.53;;;-2.12;100.00
61645;BME280;47553;52.428;13.382;2022-11-22T02:24:38;99649.75;;;-2.19;100.00
61645;BME280;47553;52.428;13.382;2022-11-22T02:26:42;99648.09;;;-2.23;100.00
61645;BME280;47553;52.428;13.382;2022-11-22T02:28:44;99642.91;;;-2.24;100.00
61645;BME280;47553;52.428;13.382;2022-11-22T02:30:45;99647.16;;;-2.20;100.00
61645;BME280;47553;52.428;13.382;2022-11-22T02:32:47;99640.16;;;-2.18;100.00
61645;BME280;47553;52.428;13.382;2022-11-22T02:34:50;99640.22;;;-2.21;100.00
61645;BME280;47553;52.428;13.382;2022-11-22T02:36:52;99635.06;;;-2.24;100.00
61645;BME280;47553;52.428;13.382;2022-11-22T02:38:55;99631.84;;;-2.36;100.00
61645;BME280;47553;52.428;13.382;2022-11-22T02:41:00;99627.78;;;-2.47;100.00
61645;BME280;47553;52.428;13.382;2022-11-22T02:43:06;99626.59;;;-2.34;100.00
61645;BME280;47553;52.428;13.382;2022-11-22T02:45:09;99631.06;;;-2.39;100.00
61645;BME280;47553;52.428;13.382;2022-11-22T02:47:11;99632.84;;;-2.41;100.00
61645;BME280;47553;52.428;13.382;2022-11-22T02:49:15;99624.69;;;-2.28;100.00
61645;BME280;47553;52.428;13.382;2022-11-22T02:51:17;99628.06;;;-2.22;100.00
61645;BME280;47553;52.428;13.382;2022-11-22T02:53:19;99616.53;;;-2.14;100.00
61645;BME280;47553;52.428;13.382;2022-11-22T02:55:21;99607.09;;;-2.19;100.00
61645;BME280;47553;52.428;13.382;2022-11-22T02:57:22;99623.34;;;-2.08;100.00
61645;BME280;47553;52.428;13.382;2022-11-22T02:59:25;99609.38;;;-2.06;100.00
61645;BME280;47553;52.428;13.382;2022-11-22T03:01:27;99606.94;;;-2.13;100.00
61645;BME280;47553;52.428;13.382;2022-11-22T03:03:30;99609.59;;;-2.15;100.00
61645;BME280;47553;52.428;13.382;2022-11-22T03:05:32;99612.13;;;-2.12;100.00
61645;BME280;47553;52.428;13.382;2022-11-22T03:07:34;99602.69;;;-2.17;100.00
61645;BME280;47553;52.428;13.382;2022-11-22T03:09:35;99597.47;;;-2.17;100.00
61645;BME280;47553;52.428;13.382;2022-11-22T03:11:37;99594.19;;;-2.25;100.00
61645;BME280;47553;52.428;13.382;2022-11-22T03:13:38;99603.72;;;-2.24;100.00
61645;BME280;47553;52.428;13.382;2022-11-22T03:15:41;99597.31;;;-2.11;100.00
61645;BME280;47553;52.428;13.382;2022-11-22T03:17:43;99605.22;;;-2.14;100.00
61645;BME280;47553;52.428;13.382;2022-11-22T03:19:45;99607.66;;;-2.07;100.00
61645;BME280;47553;52.428;13.382;2022-11-22T03:21:46;99618.97;;;-2.06;100.00
61645;BME280;47553;52.428;13.382;2022-11-22T03:23:48;99608.47;;;-2.05;100.00
61645;BME280;47553;52.428;13.382;2022-11-22T03:25:49;99610.16;;;-2.02;100.00
61645;BME280;47553;52.428;13.382;2022-11-22T03:27:51;99601.56;;;-2.07;100.00
61645;BME280;47553;52.428;13.382;2022-11-22T03:29:53;99606.47;;;-1.95;100.00
61645;BME280;47553;52.428;13.382;2022-11-22T03:31:56;99610.28;;;-2.08;100.00
61645;BME280;47553;52.428;13.382;2022-11-22T03:33:57;99605.22;;;-2.14;100.00
61645;BME280;47553;52.428;13.382;2022-11-22T03:35:59;99615.47;;;-2.07;100.00
61645;BME280;47553;52.428;13.382;2022-11-22T03:38:01;99610.28;;;-2.08;100.00
61645;BME280;47553;52.428;13.382;2022-11-22T03:40:04;99602.00;;;-2.25;100.00
61645;BME280;47553;52.428;13.382;2022-11-22T03:42:06;99595.09;;;-2.28;100.00
61645;BME280;47553;52.428;13.382;2022-11-22T03:44:07;99588.50;;;-2.43;100.00
61645;BME280;47553;52.428;13.382;2022-11-22T03:46:13;99598.81;;;-2.37;100.00
61645;BME280;47553;52.428;13.382;2022-11-22T03:48:17;99599.13;;;-2.52;100.00
61645;BME280;47553;52.428;13.382;2022-11-22T03:50:18;99593.22;;;-2.60;100.00
61645;BME280;47553;52.428;13.382;2022-11-22T03:52:20;99589.78;;;-2.62;100.00
61645;BME280;47553;52.428;13.382;2022-11-22T03:54:22;99571.00;;;-2.78;100.00
61645;BME280;47553;52.428;13.382;2022-11-22T03:56:23;99587.47;;;-2.74;100.00
61645;BME280;47553;52.428;13.382;2022-11-22T03:58:25;99572.94;;;-2.86;100.00
61645;BME280;47553;52.428;13.382;2022-11-22T04:00:27;99593.56;;;-2.75;100.00
61645;BME280;47553;52.428;13.382;2022-11-22T04:02:28;99586.47;;;-2.69;100.00
61645;BME280;47553;52.428;13.382;2022-11-22T04:04:31;99588.19;;;-2.68;100.00
61645;BME280;47553;52.428;13.382;2022-11-22T04:06:33;99577.69;;;-2.66;100.00
61645;BME280;47553;52.428;13.382;2022-11-22T04:08:35;99574.16;;;-2.64;100.00
61645;BME280;47553;52.428;13.382;2022-11-22T04:10:37;99565.47;;;-2.64;100.00
61645;BME280;47553;52.428;13.382;2022-11-22T04:12:39;99569.13;;;-2.71;100.00
61645;BME280;47553;52.428;13.382;2022-11-22T04:14:40;99587.03;;;-2.56;100.00
61645;BME280;47553;52.428;13.382;2022-11-22T04:16:42;99578.38;;;-2.58;100.00
61645;BME280;47553;52.428;13.382;2022-11-22T04:18:43;99581.66;;;-2.50;100.00
61645;BME280;47553;52.428;13.382;2022-11-22T04:20:48;99574.69;;;-2.48;100.00
61645;BME280;47553;52.428;13.382;2022-11-22T04:22:54;99582.31;;;-2.39;100.00
61645;BME280;47553;52.428;13.382;2022-11-22T04:24:56;99587.31;;;-2.30;100.00
61645;BME280;47553;52.428;13.382;2022-11-22T04:26:57;99586.50;;;-2.32;100.00
61645;BME280;47553;52.428;13.382;2022-11-22T04:28:59;99586.44;;;-2.30;100.00
61645;BME280;47553;52.428;13.382;2022-11-22T04:31:10;99586.53;;;-2.33;100.00
61645;BME280;47553;52.428;13.382;2022-11-22T04:33:13;99596.72;;;-2.22;100.00
61645;BME280;47553;52.428;13.382;2022-11-22T04:35:16;99594.94;;;-2.20;100.00
61645;BME280;47553;52.428;13.382;2022-11-22T04:37:19;99586.19;;;-2.19;100.00
61645;BME280;47553;52.428;13.382;2022-11-22T04:39:20;99582.38;;;-2.42;100.00
61645;BME280;47553;52.428;13.382;2022-11-22T04:41:22;99584.78;;;-2.33;100.00
61645;BME280;47553;52.428;13.382;2022-11-22T04:43:24;99589.28;;;-2.39;100.00
61645;BME280;47553;52.428;13.382;2022-11-22T04:45:26;99586.41;;;-2.29;100.00
61645;BME280;47553;52.428;13.382;2022-11-22T04:47:28;99581.56;;;-2.44;100.00
61645;BME280;47553;52.428;13.382;2022-11-22T04:49:29;99580.44;;;-2.34;100.00
61645;BME280;47553;52.428;13.382;2022-11-22T04:51:31;99580.38;;;-2.31;100.00
61645;BME280;47553;52.428;13.382;2022-11-22T04:53:34;99573.06;;;-2.16;100.00
61645;BME280;47553;52.428;13.382;2022-11-22T04:55:36;99576.53;;;-2.16;100.00
61645;BME280;47553;52.428;13.382;2022-11-22T04:57:38;99564.81;;;-2.01;100.00
61645;BME280;47553;52.428;13.382;2022-11-22T04:59:39;99574.34;;;-1.99;100.00
61645;BME280;47553;52.428;13.382;2022-11-22T05:01:41;99580.25;;;-1.92;100.00
61645;BME280;47553;52.428;13.382;2022-11-22T05:03:42;99573.00;;;-1.81;100.00
61645;BME280;47553;52.428;13.382;2022-11-22T05:05:44;99577.66;;;-1.92;100.00
61645;BME280;47553;52.428;13.382;2022-11-22T05:07:46;99580.34;;;-1.95;100.00
61645;BME280;47553;52.428;13.382;2022-11-22T05:09:49;99578.50;;;-1.91;100.00
61645;BME280;47553;52.428;13.382;2022-11-22T05:11:50;99580.25;;;-1.92;100.00
61645;BME280;47553;52.428;13.382;2022-11-22T05:13:52;99570.75;;;-1.94;100.00
61645;BME280;47553;52.428;13.382;2022-11-22T05:15:54;99573.47;;;-1.99;100.00
61645;BME280;47553;52.428;13.382;2022-11-22T05:17:55;99565.47;;;-1.93;100.00
61645;BME280;47553;52.428;13.382;2022-11-22T05:19:57;99566.66;;;-2.05;100.00
61645;BME280;47553;52.428;13.382;2022-11-22T05:21:59;99573.22;;;-2.22;100.00
61645;BME280;47553;52.428;13.382;2022-11-22T05:24:00;99581.03;;;-2.22;100.00
61645;BME280;47553;52.428;13.382;2022-11-22T05:26:04;99576.59;;;-2.19;100.00
61645;BME280;47553;52.428;13.382;2022-11-22T05:28:05;99567.59;;;-2.07;100.00
61645;BME280;47553;52.428;13.382;2022-11-22T05:30:07;99569.28;;;-2.05;100.00
61645;BME280;47553;52.428;13.382;2022-11-22T05:32:09;99572.06;;;-2.12;100.00
61645;BME280;47553;52.428;13.382;2022-11-22T05:34:11;99571.94;;;-2.06;100.00
61645;BME280;47553;52.428;13.382;2022-11-22T05:36:12;99560.63;;;-2.07;100.00
61645;BME280;47553;52.428;13.382;2022-11-22T05:38:14;99560.88;;;-2.17;100.00
61645;BME280;47553;52.428;13.382;2022-11-22T05:40:15;99556.25;;;-2.06;100.00
61645;BME280;47553;52.428;13.382;2022-11-22T05:42:18;99558.50;;;-1.92;100.00
61645;BME280;47553;52.428;13.382;2022-11-22T05:44:20;99560.41;;;-1.99;100.00
61645;BME280;47553;52.428;13.382;2022-11-22T05:46:23;99552.50;;;-1.96;100.00
61645;BME280;47553;52.428;13.382;2022-11-22T05:48:26;99561.13;;;-1.92;100.00
61645;BME280;47553;52.428;13.382;2022-11-22T05:50:27;99560.00;;;-1.84;100.00
61645;BME280;47553;52.428;13.382;2022-11-22T05:52:29;99559.72;;;-1.72;100.00
61645;BME280;47553;52.428;13.382;2022-11-22T05:54:31;99561.53;;;-1.75;100.00
61645;BME280;47553;52.428;13.382;2022-11-22T05:56:32;99561.53;;;-1.74;100.00
61645;BME280;47553;52.428;13.382;2022-11-22T05:58:36;99570.09;;;-1.69;100.00
61645;BME280;47553;52.428;13.382;2022-11-22T06:00:37;99582.34;;;-1.71;100.00
61645;BME280;47553;52.428;13.382;2022-11-22T06:02:39;99575.16;;;-1.62;100.00
61645;BME280;47553;52.428;13.382;2022-11-22T06:04:41;99575.19;;;-1.64;100.00
61645;BME280;47553;52.428;13.382;2022-11-22T06:06:45;99591.25;;;-1.45;100.00
61645;BME280;47553;52.428;13.382;2022-11-22T06:08:47;99582.72;;;-1.52;100.00
61645;BME280;47553;52.428;13.382;2022-11-22T06:10:49;99586.34;;;-0.95;100.00
61645;BME280;47553;52.428;13.382;2022-11-22T06:12:51;99595.03;;;-0.93;100.00
61645;BME280;47553;52.428;13.382;2022-11-22T06:14:54;99588.28;;;-1.33;100.00
61645;BME280;47553;52.428;13.382;2022-11-22T06:16:56;99579.16;;;-1.18;100.00
61645;BME280;47553;52.428;13.382;2022-11-22T06:18:57;99591.75;;;-1.02;100.00
61645;BME280;47553;52.428;13.382;2022-11-22T06:20:59;99598.22;;;-1.15;100.00
61645;BME280;47553;52.428;13.382;2022-11-22T06:23:01;99601.88;;;-1.20;100.00
61645;BME280;47553;52.428;13.382;2022-11-22T06:25:04;99577.19;;;-1.41;100.00
61645;BME280;47553;52.428;13.382;2022-11-22T06:27:05;99588.38;;;-1.36;100.00
61645;BME280;47553;52.428;13.382;2022-11-22T06:29:07;99597.16;;;-1.39;100.00
61645;BME280;47553;52.428;13.382;2022-11-22T06:31:11;99601.66;;;-1.44;100.00
61645;BME280;47553;52.428;13.382;2022-11-22T06:33:13;99610.84;;;-1.29;100.00
61645;BME280;47553;52.428;13.382;2022-11-22T06:35:15;99602.75;;;-1.20;100.00
61645;BME280;47553;52.428;13.382;2022-11-22T06:37:17;99593.59;;;-1.36;100.00
61645;BME280;47553;52.428;13.382;2022-11-22T06:39:18;99601.78;;;-1.17;100.00
61645;BME280;47553;52.428;13.382;2022-11-22T06:41:22;99608.06;;;-1.23;100.00
61645;BME280;47553;52.428;13.382;2022-11-22T06:43:26;99606.16;;;-1.18;100.00
61645;BME280;47553;52.428;13.382;2022-11-22T06:45:27;99606.25;;;-1.21;100.00
61645;BME280;47553;52.428;13.382;2022-11-22T06:47:30;99612.13;;;-1.13;100.00
61645;BME280;47553;52.428;13.382;2022-11-22T06:49:32;99612.00;;;-1.08;100.00
61645;BME280;47553;52.428;13.382;2022-11-22T06:51:33;99613.03;;;-1.14;100.00
61645;BME280;47553;52.428;13.382;2022-11-22T06:53:35;99616.56;;;-1.15;100.00
61645;BME280;47553;52.428;13.382;2022-11-22T06:55:48;99619.72;;;-1.04;100.00
61645;BME280;47553;52.428;13.382;2022-11-22T06:57:53;99625.09;;;-1.08;100.00
61645;BME280;47553;52.428;13.382;2022-11-22T06:59:54;99624.88;;;-1.01;100.00
61645;BME280;47553;52.428;13.382;2022-11-22T07:01:56;99619.97;;;-1.13;100.00
61645;BME280;47553;52.428;13.382;2022-11-22T07:04:08;99616.63;;;-1.18;100.00
61645;BME280;47553;52.428;13.382;2022-11-22T07:06:11;99623.50;;;-1.14;100.00
61645;BME280;47553;52.428;13.382;2022-11-22T07:08:13;99618.91;;;-1.06;100.00
61645;BME280;47553;52.428;13.382;2022-11-22T07:10:15;99619.72;;;-1.04;100.00
61645;BME280;47553;52.428;13.382;2022-11-22T07:12:17;99630.28;;;-1.07;100.00
61645;BME280;47553;52.428;13.382;2022-11-22T07:14:19;99624.94;;;-1.04;100.00
61645;BME280;47553;52.428;13.382;2022-11-22T07:16:20;99630.09;;;-1.01;100.00
61645;BME280;47553;52.428;13.382;2022-11-22T07:18:22;99637.66;;;-1.21;100.00
61645;BME280;47553;52.428;13.382;2022-11-22T07:20:25;99631.34;;;-1.14;100.00
61645;BME280;47553;52.428;13.382;2022-11-22T07:22:27;99637.81;;;-0.94;100.00
61645;BME280;47553;52.428;13.382;2022-11-22T07:24:29;99642.13;;;-0.93;100.00
61645;BME280;47553;52.428;13.382;2022-11-22T07:26:30;99641.28;;;-0.94;100.00
61645;BME280;47553;52.428;13.382;2022-11-22T07:28:32;99645.22;;;-0.79;100.00
61645;BME280;47553;52.428;13.382;2022-11-22T07:30:33;99651.91;;;-0.69;100.00
61645;BME280;47553;52.428;13.382;2022-11-22T07:32:40;99644.94;;;-0.70;100.00
61645;BME280;47553;52.428;13.382;2022-11-22T07:34:41;99650.44;;;-0.79;100.00
61645;BME280;47553;52.428;13.382;2022-11-22T07:36:44;99648.25;;;-0.63;100.00
61645;BME280;47553;52.428;13.382;2022-11-22T07:38:46;99650.00;;;-0.64;100.00
61645;BME280;47553;52.428;13.382;2022-11-22T07:40:48;99642.78;;;-0.56;100.00
61645;BME280;47553;52.428;13.382;2022-11-22T07:42:50;99640.16;;;-0.85;100.00
61645;BME280;47553;52.428;13.382;2022-11-22T07:44:58;99633.75;;;-0.75;100.00
61645;BME280;47553;52.428;13.382;2022-11-22T07:47:00;99629.50;;;-0.79;100.00
61645;BME280;47553;52.428;13.382;2022-11-22T07:49:01;99624.91;;;-0.71;100.00
61645;BME280;47553;52.428;13.382;2022-11-22T07:51:04;99620.56;;;-0.72;100.00
61645;BME280;47553;52.428;13.382;2022-11-22T07:53:08;99622.38;;;-0.74;100.00
61645;BME280;47553;52.428;13.382;2022-11-22T07:55:10;99624.66;;;-0.63;100.00
61645;BME280;47553;52.428;13.382;2022-11-22T07:57:14;99615.41;;;-0.75;100.00
61645;BME280;47553;52.428;13.382;2022-11-22T07:59:16;99605.09;;;-0.80;100.00
61645;BME280;47553;52.428;13.382;2022-11-22T08:01:18;99603.41;;;-0.82;100.00
61645;BME280;47553;52.428;13.382;2022-11-22T08:03:20;99598.38;;;-0.88;100.00
61645;BME280;47553;52.428;13.382;2022-11-22T08:05:29;99600.25;;;-0.93;100.00
61645;BME280;47553;52.428;13.382;2022-11-22T08:07:30;99589.78;;;-0.93;100.00
61645;BME280;47553;52.428;13.382;2022-11-22T08:09:33;99590.28;;;-0.81;100.00
61645;BME280;47553;52.428;13.382;2022-11-22T08:11:35;99594.56;;;-0.78;100.00
61645;BME280;47553;52.428;13.382;2022-11-22T08:13:37;99597.22;;;-0.80;100.00
61645;BME280;47553;52.428;13.382;2022-11-22T08:15:38;99601.50;;;-0.77;100.00
61645;BME280;47553;52.428;13.382;2022-11-22T08:17:40;99601.34;;;-0.71;100.00
61645;BME280;47553;52.428;13.382;2022-11-22T08:19:42;99601.19;;;-0.66;100.00
61645;BME280;47553;52.428;13.382;2022-11-22T08:21:43;99596.06;;;-0.70;100.00
61645;BME280;47553;52.428;13.382;2022-11-22T08:23:46;99575.63;;;-0.86;100.00
61645;BME280;47553;52.428;13.382;2022-11-22T08:25:49;99598.28;;;-0.85;100.00
61645;BME280;47553;52.428;13.382;2022-11-22T08:27:51;99590.28;;;-0.81;100.00
61645;BME280;47553;52.428;13.382;2022-11-22T08:29:54;99586.28;;;-0.92;100.00
61645;BME280;47553;52.428;13.382;2022-11-22T08:31:55;99586.09;;;-0.86;100.00
61645;BME280;47553;52.428;13.382;2022-11-22T08:33:57;99594.47;;;-0.75;100.00
61645;BME280;47553;52.428;13.382;2022-11-22T08:35:58;99570.09;;;-0.77;100.00
61645;BME280;47553;52.428;13.382;2022-11-22T08:38:00;99584.81;;;-0.73;100.00
61645;BME280;47553;52.428;13.382;2022-11-22T08:40:02;99580.56;;;-0.77;100.00
61645;BME280;47553;52.428;13.382;2022-11-22T08:42:05;99584.56;;;-0.93;100.00
61645;BME280;47553;52.428;13.382;2022-11-22T08:44:07;99585.41;;;-0.93;100.00
61645;BME280;47553;52.428;13.382;2022-11-22T08:46:09;99591.59;;;-0.95;100.00
61645;BME280;47553;52.428;13.382;2022-11-22T08:48:11;99607.03;;;-0.86;100.00
61645;BME280;47553;52.428;13.382;2022-11-22T08:50:16;99595.94;;;-0.94;100.00
61645;BME280;47553;52.428;13.382;2022-11-22T08:52:18;99611.31;;;-0.84;100.00
61645;BME280;47553;52.428;13.382;2022-11-22T08:54:19;99611.00;;;-0.73;100.00
61645;BME280;47553;52.428;13.382;2022-11-22T08:56:21;99617.19;;;-0.76;100.00
61645;BME280;47553;52.428;13.382;2022-11-22T08:58:25;99603.03;;;-0.70;100.00
61645;BME280;47553;52.428;13.382;2022-11-22T09:00:27;99613.63;;;-0.73;100.00
61645;BME280;47553;52.428;13.382;2022-11-22T09:02:34;99621.25;;;-0.65;100.00
61645;BME280;47553;52.428;13.382;2022-11-22T09:04:35;99634.81;;;-0.53;100.00
61645;BME280;47553;52.428;13.382;2022-11-22T09:06:37;99641.53;;;-0.44;100.00
61645;BME280;47553;52.428;13.382;2022-11-22T09:08:58;99648.31;;;-0.37;100.00
61645;BME280;47553;52.428;13.382;2022-11-22T09:11:20;99649.06;;;-0.33;100.00
61645;BME280;47553;52.428;13.382;2022-11-22T09:13:22;99652.16;;;-0.19;100.00
61645;BME280;47553;52.428;13.382;2022-11-22T09:15:24;99654.75;;;-0.19;100.00
61645;BME280;47553;52.428;13.382;2022-11-22T09:17:26;99647.09;;;-0.25;100.00
61645;BME280;47553;52.428;13.382;2022-11-22T09:19:28;99655.81;;;-0.26;100.00
61645;BME280;47553;52.428;13.382;2022-11-22T09:21:30;99655.81;;;-0.26;100.00
61645;BME280;47553;52.428;13.382;2022-11-22T09:23:32;99641.91;;;-0.28;100.00
61645;BME280;47553;52.428;13.382;2022-11-22T09:25:34;99640.09;;;-0.26;100.00
61645;BME280;47553;52.428;13.382;2022-11-22T09:27:36;99645.03;;;-0.16;100.00
61645;BME280;47553;52.428;13.382;2022-11-22T09:29:37;99642.47;;;-0.17;100.00
61645;BME280;47553;52.428;13.382;2022-11-22T09:31:40;99647.75;;;-0.19;100.00
61645;BME280;47553;52.428;13.382;2022-11-22T09:33:42;99635.56;;;-0.20;100.00
61645;BME280;47553;52.428;13.382;2022-11-22T09:35:44;99641.06;;;-0.01;100.00
61645;BME280;47553;52.428;13.382;2022-11-22T09:37:46;99640.78;;;0.08;100.00
61645;BME280;47553;52.428;13.382;2022-11-22T09:39:48;99643.38;;;0.08;100.00
61645;BME280;47553;52.428;13.382;2022-11-22T09:42:12;99642.97;;;-0.06;100.00
61645;BME280;47553;52.428;13.382;2022-11-22T09:44:25;99657.91;;;0.18;100.00
61645;BME280;47553;52.428;13.382;2022-11-22T09:46:39;99650.59;;;0.02;100.00
61645;BME280;47553;52.428;13.382;2022-11-22T09:49:27;99651.09;;;-0.14;100.00
61645;BME280;47553;52.428;13.382;2022-11-22T09:51:33;99646.47;;;-0.06;100.00
61645;BME280;47553;52.428;13.382;2022-11-22T09:53:43;99641.38;;;-0.10;100.00
61645;BME280;47553;52.428;13.382;2022-11-22T09:55:46;99639.66;;;-0.11;100.00
61645;BME280;47553;52.428;13.382;2022-11-22T09:57:51;99650.69;;;-0.01;100.00
61645;BME280;47553;52.428;13.382;2022-11-22T10:00:00;99664.97;;;0.16;100.00
61645;BME280;47553;52.428;13.382;2022-11-22T10:02:06;99665.31;;;0.32;100.00
61645;BME280;47553;52.428;13.382;2022-11-22T10:04:23;99670.13;;;0.19;100.00
61645;BME280;47553;52.428;13.382;2022-11-22T10:06:28;99655.69;;;0.33;100.00
61645;BME280;47553;52.428;13.382;2022-11-22T10:08:36;99662.66;;;0.34;100.00
61645;BME280;47553;52.428;13.382;2022-11-22T10:10:42;99664.00;;;0.19;100.00
61645;BME280;47553;52.428;13.382;2022-11-22T10:12:48;99646.63;;;0.16;100.00
61645;BME280;47553;52.428;13.382;2022-11-22T10:14:59;99664.16;;;0.41;100.00
61645;BME280;47553;52.428;13.382;2022-11-22T10:17:07;99663.41;;;0.37;100.00
61645;BME280;47553;52.428;13.382;2022-11-22T10:19:14;99661.25;;;0.23;100.00
61645;BME280;47553;52.428;13.382;2022-11-22T10:21:18;99657.31;;;0.37;100.00
61645;BME280;47553;52.428;13.382;2022-11-22T10:23:21;99660.47;;;0.20;100.00
61645;BME280;47553;52.428;13.382;2022-11-22T10:25:31;99644.19;;;0.10;100.00
61645;BME280;47553;52.428;13.382;2022-11-22T10:27:34;99659.00;;;0.38;100.00
61645;BME280;47553;52.428;13.382;2022-11-22T10:29:37;99654.88;;;0.31;100.00
61645;BME280;47553;52.428;13.382;2022-11-22T10:31:46;99666.94;;;0.36;100.00
61645;BME280;47553;52.428;13.382;2022-11-22T10:33:58;99655.28;;;0.45;100.00
61645;BME280;47553;52.428;13.382;2022-11-22T10:36:23;99647.00;;;0.31;100.00